Airfield :







YOU CAN JOIN US ON...

 
LOGIN :

Register | Disclaimer

   EN    FR    IT 

 









Legend :    VFR   Marginal VFR   IFR   Intensive IFR   Very Intensive IFR
Visi :
Ceiling :
>= 8 km
>= 3000ft
5 to 8 km
1000 to 3000 ft
1500m to 5 km
500 to 1000 ft
800 to 1500m
200 to 500 ft
< 800m
< 200 ft
Symbols :   Thunderstorms  Fog  Heavy snow  Heavy precipitations  Wind > 20 kt






- Airport Elevation : 70 ft


KIWI - Wiscasset

CURRENT METAR :
  • 302053Z AUTO 25008G17KT 10SM CLR 21/09 A2960 RMK AO2 SLP023 T02110094 53033

EXPIRED METARs :
  • 301953Z AUTO 24007G17KT 210V290 10SM CLR 22/12 A2956 RMK AO2 SLP010 T02170117
  • 301853Z AUTO 25009G15KT 10SM FEW043 SCT060 BKN080 22/12 A2953 RMK AO2 SLP999 T02170122
  • 301753Z AUTO 21008KT 10SM FEW080 SCT090 21/16 A2950 RMK AO2 SLP990 60002 T02110156 10211 20194 50009

TAF N/A
KZBW FIR / North America



MET'MAP, your aeronautical weather chart ! - Copyright ORBIFLY December 2007 - Disclaimer

ORBIFLY MET'MAP TEAM :

Programming & Development : Alexandra Zaïnal
Concept & original design : Baudouin d'Aumeries
Assistance for programming : Marc-Olivier Méhu
Technical & hardware support : Manuel Goepfert

Contact : metmap@orbifly.com




SOURCES & CREDITS :

   NOAA